Time;durP1;ratioP1;P1;durP2;ratioP2;P2;SDS_P1;SDS_P2;PMS_P1;PMS_P2;Temp;Humidity;BMP_temperature;BMP_pressure;BME280_temperature;BME280_humidity;BME280_pressure;Samples;Min_cycle;Max_cycle;Signal;HPM_P1;HPM_P2
2021/07/22 00:00:48;;;;;;;8.90;6.32;;;;;;;16.47;61.18;96150.25;4991595;28;20184;-77
2021/07/22 00:03:13;;;;;;;8.20;6.25;;;;;;;16.41;61.87;96143.88;4974896;28;20191;-77
2021/07/22 00:05:38;;;;;;;6.90;5.85;;;;;;;16.33;62.70;96138.66;4992761;28;20200;-76
2021/07/22 00:08:04;;;;;;;9.35;6.15;;;;;;;16.30;62.45;96149.50;4989688;28;20647;-77
2021/07/22 00:10:29;;;;;;;10.25;6.45;;;;;;;16.28;62.37;96145.41;4992701;28;20242;-76
2021/07/22 00:12:55;;;;;;;8.38;6.28;;;;;;;16.18;62.77;96143.00;4991184;28;20211;-76
2021/07/22 00:15:20;;;;;;;7.25;5.80;;;;;;;16.17;61.99;96137.91;4990219;28;20246;-76
2021/07/22 00:17:45;;;;;;;6.53;5.65;;;;;;;16.17;62.29;96137.91;4971715;28;20180;-76
2021/07/22 00:20:11;;;;;;;9.55;6.55;;;;;;;16.14;62.47;96139.88;4973023;28;20180;-75
2021/07/22 00:22:37;;;;;;;7.72;6.47;;;;;;;16.12;62.76;96146.28;4971474;28;20543;-76
2021/07/22 00:25:07;;;;;;;8.80;6.40;;;;;;;16.11;62.96;96147.25;4976906;28;20203;-77
2021/07/22 00:27:33;;;;;;;6.78;6.05;;;;;;;16.09;63.35;96136.13;4991031;28;20176;-76
2021/07/22 00:29:58;;;;;;;8.13;6.05;;;;;;;16.09;63.18;96141.38;4991362;28;20717;-76
2021/07/22 00:32:23;;;;;;;8.15;6.10;;;;;;;16.07;62.71;96138.91;4990983;28;20208;-76
2021/07/22 00:34:49;;;;;;;9.38;6.13;;;;;;;16.06;62.33;96137.25;4992161;28;20246;-77
2021/07/22 00:37:14;;;;;;;7.85;6.32;;;;;;;16.07;62.57;96141.53;4990102;28;20183;-77
2021/07/22 00:39:40;;;;;;;6.60;5.53;;;;;;;16.09;62.82;96131.72;4974500;28;20270;-77
2021/07/22 00:42:05;;;;;;;6.63;5.93;;;;;;;16.12;62.65;96130.56;4990345;28;20206;-77
2021/07/22 00:44:30;;;;;;;7.60;5.97;;;;;;;16.14;62.73;96136.44;4995686;28;20191;-76
2021/07/22 00:46:55;;;;;;;11.18;6.07;;;;;;;16.16;62.77;96121.34;4994129;28;20199;-76
2021/07/22 00:49:21;;;;;;;7.15;6.45;;;;;;;16.19;62.16;96125.47;4994886;28;20236;-77
2021/07/22 00:51:46;;;;;;;7.22;6.30;;;;;;;16.18;62.79;96118.59;4995999;28;20648;-76
2021/07/22 00:54:11;;;;;;;9.40;6.32;;;;;;;16.17;63.27;96117.78;4994956;28;20207;-76
2021/07/22 00:56:37;;;;;;;8.73;6.07;;;;;;;16.17;62.76;96111.69;4993628;28;20206;-77
2021/07/22 00:59:02;;;;;;;6.85;5.88;;;;;;;16.14;63.75;96115.47;4994233;28;20709;-76
2021/07/22 01:01:28;;;;;;;10.52;6.25;;;;;;;16.14;63.18;96113.66;4978410;28;20203;-76
2021/07/22 01:03:54;;;;;;;8.00;6.03;;;;;;;16.09;63.93;96108.13;4994553;28;20204;-77
2021/07/22 01:06:19;;;;;;;6.45;5.28;;;;;;;16.03;63.76;96115.84;4994392;28;20675;-77
2021/07/22 01:08:44;;;;;;;6.88;5.75;;;;;;;16.00;63.78;96113.56;4993330;28;20183;-77
2021/07/22 01:11:10;;;;;;;10.98;6.00;;;;;;;15.98;64.20;96107.66;4994319;28;20187;-77
2021/07/22 01:13:35;;;;;;;8.40;6.07;;;;;;;15.95;64.01;96110.63;4994231;28;20208;-76
2021/07/22 01:16:01;;;;;;;8.88;6.13;;;;;;;15.91;64.16;96110.16;4978219;28;20176;-77
2021/07/22 01:18:26;;;;;;;7.30;6.20;;;;;;;15.87;64.04;96114.06;4976485;28;20626;-77
2021/07/22 01:20:51;;;;;;;7.05;6.30;;;;;;;15.83;64.20;96112.78;4978359;28;20210;-76
2021/07/22 01:23:16;;;;;;;10.95;6.50;;;;;;;15.82;64.49;96113.75;4993791;28;20186;-77
2021/07/22 01:25:42;;;;;;;9.40;6.63;;;;;;;15.77;64.44;96105.56;4977799;28;20643;-77
2021/07/22 01:28:08;;;;;;;6.45;5.68;;;;;;;15.74;64.67;96104.13;4977978;28;20208;-77
2021/07/22 01:30:33;;;;;;;10.63;6.45;;;;;;;15.67;65.01;96102.31;4992901;28;20195;-77
2021/07/22 01:32:58;;;;;;;7.60;5.82;;;;;;;15.67;64.36;96104.94;4977548;28;20212;-77
2021/07/22 01:35:24;;;;;;;7.30;6.30;;;;;;;15.64;64.93;96100.84;4994003;28;20220;-77
2021/07/22 01:37:50;;;;;;;7.28;5.72;;;;;;;15.62;64.95;96104.59;4995049;28;20226;-77
2021/07/22 01:40:15;;;;;;;9.10;6.22;;;;;;;15.53;64.92;96099.34;4993656;28;20183;-77
2021/07/22 01:42:41;;;;;;;7.05;5.97;;;;;;;15.53;64.74;96101.94;4976940;28;20692;-77
2021/07/22 01:45:08;;;;;;;7.80;6.43;;;;;;;15.48;65.28;96093.78;4993721;28;20200;-77
2021/07/22 01:47:34;;;;;;;11.30;6.50;;;;;;;15.45;65.52;96088.88;4994958;28;20179;-77
2021/07/22 01:50:00;;;;;;;7.47;5.78;;;;;;;15.43;65.68;96095.25;4992630;28;20188;-77
2021/07/22 01:52:25;;;;;;;10.95;6.90;;;;;;;15.41;64.84;96092.81;4977168;28;20179;-77
2021/07/22 01:54:50;;;;;;;7.75;6.03;;;;;;;15.39;64.85;96093.97;4993031;28;20207;-76
2021/07/22 01:57:15;;;;;;;6.25;5.65;;;;;;;15.37;64.96;96083.66;4994968;28;20349;-77
2021/07/22 01:59:41;;;;;;;10.50;6.43;;;;;;;15.35;64.46;96080.38;4993593;28;20644;-77
2021/07/22 02:02:08;;;;;;;7.90;6.65;;;;;;;15.34;64.76;96085.78;4992185;28;20195;-77
2021/07/22 02:04:34;;;;;;;8.10;6.35;;;;;;;15.33;64.50;96084.16;4993478;28;20687;-77
2021/07/22 02:07:00;;;;;;;9.90;6.20;;;;;;;15.28;65.28;96080.22;4993523;28;20632;-77
2021/07/22 02:09:25;;;;;;;11.45;5.85;;;;;;;15.27;65.65;96081.19;4993456;28;20206;-77
2021/07/22 02:11:51;;;;;;;7.82;6.55;;;;;;;15.28;65.24;96079.38;4975639;28;20726;-76
2021/07/22 02:14:17;;;;;;;7.70;6.20;;;;;;;15.25;65.42;96072.69;4985227;28;20200;-77
2021/07/22 02:16:42;;;;;;;9.48;6.32;;;;;;;15.23;65.49;96072.03;4993294;28;20315;-77
2021/07/22 02:19:07;;;;;;;7.88;6.82;;;;;;;15.19;66.21;96069.91;4993176;28;20187;-77
2021/07/22 02:21:33;;;;;;;8.25;6.57;;;;;;;15.18;65.46;96078.72;4976724;28;20183;-77
2021/07/22 02:23:59;;;;;;;8.00;6.45;;;;;;;15.19;65.63;96086.41;4991929;28;20207;-77
2021/07/22 02:26:24;;;;;;;10.20;6.68;;;;;;;15.17;66.38;96079.72;4993312;28;20639;-77
2021/07/22 02:28:53;;;;;;;9.10;6.93;;;;;;;15.13;66.84;96081.84;4993151;28;20187;-76
2021/07/22 02:31:19;;;;;;;9.90;6.85;;;;;;;15.15;66.57;96084.31;4992912;28;20175;-77
2021/07/22 02:33:44;;;;;;;8.77;5.90;;;;;;;15.17;66.24;96082.34;4989608;28;20228;-77
2021/07/22 02:36:09;;;;;;;9.73;6.97;;;;;;;15.17;67.17;96084.94;4976641;28;20204;-77
2021/07/22 02:38:35;;;;;;;9.73;6.60;;;;;;;15.20;66.68;96079.41;4993122;28;20176;-76
2021/07/22 02:41:00;;;;;;;10.95;6.57;;;;;;;15.19;66.84;96089.03;4994029;28;20176;-77
2021/07/22 02:43:25;;;;;;;9.45;6.50;;;;;;;15.18;66.66;96086.59;4990423;28;20255;-76
2021/07/22 02:45:51;;;;;;;8.95;6.95;;;;;;;15.14;66.90;96087.91;4993868;28;20184;-77
2021/07/22 02:48:16;;;;;;;8.57;5.95;;;;;;;15.14;66.81;96085.28;4973181;28;20188;-77
2021/07/22 02:50:42;;;;;;;8.70;6.55;;;;;;;15.13;66.51;96083.66;4973400;28;20294;-76
2021/07/22 02:53:08;;;;;;;10.52;6.50;;;;;;;15.11;65.96;96099.50;4989029;28;20232;-77
2021/07/22 02:55:33;;;;;;;9.23;6.68;;;;;;;15.16;66.17;96093.78;4987925;28;20267;-77
2021/07/22 02:58:05;;;;;;;9.02;6.70;;;;;;;15.12;66.87;96089.88;4993553;28;20184;-76
2021/07/22 03:00:31;;;;;;;9.30;6.57;;;;;;;15.08;67.18;96089.34;4992488;28;20176;-77
2021/07/22 03:03:00;;;;;;;8.45;6.03;;;;;;;15.09;66.89;96090.16;4976560;28;20186;-77
2021/07/22 03:05:25;;;;;;;9.75;6.57;;;;;;;15.08;66.79;96091.16;4990514;28;20534;-77
2021/07/22 03:07:50;;;;;;;9.15;6.60;;;;;;;15.07;67.30;96092.94;4976073;28;20180;-77
2021/07/22 03:10:16;;;;;;;9.70;6.18;;;;;;;15.07;66.45;96086.91;4992492;28;20207;-77
2021/07/22 03:12:41;;;;;;;7.45;6.60;;;;;;;15.06;67.09;96088.72;4992004;28;20233;-77
2021/07/22 03:15:07;;;;;;;9.57;6.20;;;;;;;15.05;67.09;96091.50;4974827;28;20590;-76
2021/07/22 03:17:32;;;;;;;10.45;6.45;;;;;;;15.00;66.72;96089.34;4992483;28;20187;-77
2021/07/22 03:19:57;;;;;;;6.57;5.68;;;;;;;14.98;66.50;96089.50;4992229;28;20183;-77
2021/07/22 03:22:23;;;;;;;7.43;6.07;;;;;;;14.96;66.29;96095.88;4993132;28;20633;-76
2021/07/22 03:24:51;;;;;;;8.48;6.43;;;;;;;14.95;66.69;96094.25;4991909;28;20639;-76
2021/07/22 03:27:16;;;;;;;10.30;5.88;;;;;;;14.94;66.39;96093.44;4991182;28;20559;-76
2021/07/22 03:29:42;;;;;;;8.85;6.55;;;;;;;14.96;66.62;96093.28;4991941;28;20206;-76
2021/07/22 03:32:07;;;;;;;8.70;6.25;;;;;;;14.97;66.04;96087.88;4991807;28;20222;-76
2021/07/22 03:34:33;;;;;;;9.75;6.40;;;;;;;14.97;66.37;96090.50;4991827;28;20212;-76
2021/07/22 03:36:58;;;;;;;9.70;6.57;;;;;;;14.98;66.14;96088.69;4991119;28;20187;-76
2021/07/22 03:39:23;;;;;;;9.10;6.35;;;;;;;15.00;65.94;96086.72;4991738;28;20200;-76
2021/07/22 03:41:49;;;;;;;8.63;5.85;;;;;;;15.02;65.58;96084.78;4990619;28;20207;-76
2021/07/22 03:44:17;;;;;;;8.90;6.60;;;;;;;15.03;65.81;96078.56;4991485;28;20212;-76
2021/07/22 03:46:43;;;;;;;9.85;5.93;;;;;;;15.04;65.89;96082.00;4991727;28;20176;-76
2021/07/22 03:49:08;;;;;;;9.27;6.20;;;;;;;15.04;65.90;96082.81;4990893;28;20237;-77
2021/07/22 03:51:34;;;;;;;7.78;5.93;;;;;;;15.04;65.48;96082.00;4991337;28;20183;-76
2021/07/22 03:53:59;;;;;;;7.57;6.30;;;;;;;15.04;65.56;96082.00;5007667;28;20214;-76
2021/07/22 03:56:25;;;;;;;8.05;6.78;;;;;;;15.04;65.58;96084.63;4975420;28;20183;-76
2021/07/22 03:58:52;;;;;;;9.40;5.63;;;;;;;15.02;65.66;96084.78;4990056;28;20648;-76
2021/07/22 04:01:17;;;;;;;7.53;6.38;;;;;;;15.01;66.35;96085.75;4984937;28;20180;-77
2021/07/22 04:03:43;;;;;;;12.80;7.18;;;;;;;15.04;66.10;96087.25;4975081;28;20250;-77
2021/07/22 04:06:10;;;;;;;9.07;6.78;;;;;;;15.06;66.81;96095.75;4991160;28;20643;-77
2021/07/22 04:08:36;;;;;;;10.90;6.68;;;;;;;15.10;65.93;96086.56;4989638;28;20206;-77
2021/07/22 04:11:01;;;;;;;6.97;6.13;;;;;;;15.10;65.39;96090.00;4992667;28;20212;-76
2021/07/22 04:13:26;;;;;;;7.53;6.43;;;;;;;15.16;65.51;96091.16;4990944;28;20207;-76
2021/07/22 04:15:52;;;;;;;9.07;6.22;;;;;;;15.19;65.88;96089.03;4991366;28;20285;-76
2021/07/22 04:18:17;;;;;;;10.82;6.53;;;;;;;15.22;66.83;96087.91;4992431;28;20234;-76
2021/07/22 04:20:42;;;;;;;8.73;6.63;;;;;;;15.25;66.78;96085.78;4971774;28;20176;-76
2021/07/22 04:23:08;;;;;;;10.02;6.82;;;;;;;15.35;66.45;96085.59;4991919;28;20180;-75
2021/07/22 04:25:33;;;;;;;8.13;6.38;;;;;;;15.49;65.92;96086.75;4992261;28;20186;-75
2021/07/22 04:27:59;;;;;;;8.52;6.15;;;;;;;15.57;65.48;96084.94;4990976;28;20317;-76
2021/07/22 04:30:24;;;;;;;10.38;6.32;;;;;;;15.68;65.07;96086.44;4989856;28;20180;-75
2021/07/22 04:32:49;;;;;;;6.88;6.18;;;;;;;15.76;65.21;96089.03;4990526;28;20220;-75
2021/07/22 04:35:15;;;;;;;8.05;6.18;;;;;;;15.90;64.44;96084.91;4992156;28;20192;-75
2021/07/22 04:37:40;;;;;;;7.13;5.82;;;;;;;16.02;64.60;96085.38;4990715;28;20714;-75
2021/07/22 04:40:06;;;;;;;9.68;6.60;;;;;;;16.20;63.71;96085.16;4991800;28;20172;-75
2021/07/22 04:42:33;;;;;;;7.05;6.30;;;;;;;17.18;60.85;96096.00;4990660;28;20806;-76
2021/07/22 04:44:58;;;;;;;6.85;5.68;;;;;;;18.51;57.20;96093.56;4990688;28;20195;-75
2021/07/22 04:47:23;;;;;;;7.70;5.57;;;;;;;19.68;52.59;96096.84;4990705;28;20186;-75
2021/07/22 04:49:49;;;;;;;6.78;5.35;;;;;;;20.26;50.04;96100.91;4990769;28;20175;-76
2021/07/22 04:52:14;;;;;;;6.22;5.57;;;;;;;21.05;49.37;96105.72;4989253;28;20183;-76
2021/07/22 04:54:39;;;;;;;7.45;5.63;;;;;;;21.39;47.39;96101.38;4991620;28;20695;-76
2021/07/22 04:57:05;;;;;;;8.32;6.35;;;;;;;20.52;49.75;96100.25;4974499;28;20215;-76
2021/07/22 04:59:30;;;;;;;8.00;6.07;;;;;;;19.66;51.82;96099.69;4990694;28;20234;-76
2021/07/22 05:01:55;;;;;;;6.00;5.40;;;;;;;20.25;51.69;96098.47;4990012;28;20870;-76
2021/07/22 05:04:21;;;;;;;6.97;5.28;;;;;;;21.24;48.41;96105.97;4990404;28;20650;-76
2021/07/22 05:06:46;;;;;;;9.15;5.55;;;;;;;21.26;47.62;96102.09;4995723;28;20184;-76
2021/07/22 05:09:11;;;;;;;10.35;5.47;;;;;;;22.33;45.33;96104.56;4991786;28;20207;-76
2021/07/22 05:11:37;;;;;;;7.55;5.10;;;;;;;22.76;43.80;96096.09;4974012;28;20184;-76
2021/07/22 05:14:02;;;;;;;6.50;5.00;;;;;;;23.09;42.90;96103.09;4970487;28;20247;-75
2021/07/22 05:16:27;;;;;;;9.27;5.53;;;;;;;23.50;42.46;96107.09;4987334;28;20275;-76
2021/07/22 05:18:53;;;;;;;6.20;4.72;;;;;;;24.55;38.86;96100.91;4989634;28;20238;-76
2021/07/22 05:21:19;;;;;;;6.80;4.80;;;;;;;24.93;39.47;96104.34;5000360;28;20180;-74
2021/07/22 05:23:44;;;;;;;5.75;4.95;;;;;;;25.09;38.31;96103.75;4986262;28;20204;-74
2021/07/22 05:26:10;;;;;;;5.93;4.88;;;;;;;25.63;35.90;96109.94;4989951;28;20647;-76
2021/07/22 05:28:39;;;;;;;12.18;4.72;;;;;;;26.45;35.23;96108.16;4972196;28;20248;-78
2021/07/22 05:31:06;;;;;;;5.55;5.05;;;;;;;25.94;35.36;96101.66;4990843;28;20180;-76
2021/07/22 05:33:31;;;;;;;7.15;5.00;;;;;;;25.67;35.81;96103.91;4958117;28;20216;-76
2021/07/22 05:36:00;;;;;;;10.07;5.15;;;;;;;25.99;34.90;96106.31;4990482;28;20253;-76
2021/07/22 05:38:26;;;;;;;7.30;5.38;;;;;;;25.63;36.67;96105.44;4974564;28;20549;-75
2021/07/22 05:40:51;;;;;;;6.40;4.80;;;;;;;25.43;36.37;96108.38;5006597;28;20183;-76
2021/07/22 05:43:16;;;;;;;7.38;5.15;;;;;;;24.61;37.02;96117.78;4996762;28;20191;-76
2021/07/22 05:45:41;;;;;;;8.63;4.75;;;;;;;23.90;38.36;96113.78;5001635;28;20183;-75
2021/07/22 05:48:07;;;;;;;6.28;5.03;;;;;;;23.00;40.33;96109.66;4993685;28;20593;-76
2021/07/22 05:50:32;;;;;;;8.18;5.05;;;;;;;23.16;41.35;96115.28;4993719;28;20644;-76
2021/07/22 05:52:58;;;;;;;8.05;4.85;;;;;;;22.65;42.35;96107.34;4993386;28;20230;-77
2021/07/22 05:55:26;;;;;;;8.00;5.10;;;;;;;22.70;41.56;96109.34;4975799;28;20257;-76
2021/07/22 05:57:51;;;;;;;6.15;5.00;;;;;;;21.70;44.47;96109.50;4993453;28;20283;-75
2021/07/22 06:00:17;;;;;;;8.10;5.85;;;;;;;21.64;43.71;96120.06;4994886;28;20192;-77
2021/07/22 06:02:42;;;;;;;6.32;5.15;;;;;;;21.14;46.70;96117.75;4976814;28;20191;-75
2021/07/22 06:05:08;;;;;;;7.28;5.55;;;;;;;21.17;46.93;96111.25;4977018;28;20196;-76
2021/07/22 06:07:33;;;;;;;8.48;5.13;;;;;;;22.31;45.56;96119.84;4993200;28;20188;-76
2021/07/22 06:09:58;;;;;;;6.22;5.60;;;;;;;24.18;42.51;96123.91;4994584;28;20230;-77
2021/07/22 06:12:24;;;;;;;26.60;7.28;;;;;;;25.56;40.52;96125.19;4976716;28;20184;-77
2021/07/22 06:14:49;;;;;;;5.60;5.10;;;;;;;26.33;37.63;96123.34;4994035;28;20702;-76
2021/07/22 06:17:14;;;;;;;8.43;5.35;;;;;;;27.92;34.00;96126.19;4995299;28;20198;-75
2021/07/22 06:19:39;;;;;;;5.50;4.95;;;;;;;27.65;34.89;96131.31;4994104;28;20179;-76
2021/07/22 06:22:05;;;;;;;5.00;4.50;;;;;;;28.76;32.93;96135.97;4993164;28;20172;-77
2021/07/22 06:24:30;;;;;;;7.43;4.88;;;;;;;29.14;30.28;96136.97;4993396;28;20563;-75
2021/07/22 06:26:55;;;;;;;8.77;5.22;;;;;;;30.28;27.28;96135.91;4994744;28;20525;-77
2021/07/22 06:29:21;;;;;;;6.60;5.60;;;;;;;28.52;31.96;96135.38;4975087;28;20191;-76
2021/07/22 06:31:46;;;;;;;7.15;5.38;;;;;;;27.23;34.22;96138.81;4973554;28;20267;-77
2021/07/22 06:34:11;;;;;;;6.60;5.07;;;;;;;27.52;33.27;96133.47;5006547;28;20254;-77
2021/07/22 06:36:37;;;;;;;7.75;5.28;;;;;;;25.52;36.63;96140.75;4991017;28;20184;-76
2021/07/22 06:39:02;;;;;;;8.45;5.47;;;;;;;24.50;39.77;96134.47;4997690;28;20255;-77
2021/07/22 06:41:27;;;;;;;9.82;6.03;;;;;;;24.69;39.61;96135.28;4989230;28;20561;-77
2021/07/22 06:43:53;;;;;;;6.32;4.95;;;;;;;26.44;36.63;96133.19;4974541;28;20271;-76
2021/07/22 06:46:18;;;;;;;6.40;5.63;;;;;;;26.96;36.51;96132.41;4990916;28;20179;-77
2021/07/22 06:48:44;;;;;;;8.27;5.07;;;;;;;28.31;33.98;96131.59;4991091;28;20547;-77
2021/07/22 06:51:10;;;;;;;6.70;5.35;;;;;;;28.00;32.68;96135.63;4979504;28;20582;-76
2021/07/22 06:53:35;;;;;;;7.82;5.85;;;;;;;27.79;32.84;96136.38;4974564;28;20220;-75
2021/07/22 06:56:02;;;;;;;6.55;5.00;;;;;;;27.53;33.46;96130.56;4992270;28;20613;-77
2021/07/22 06:58:27;;;;;;;8.98;5.47;;;;;;;28.00;33.66;96140.97;4990441;28;20188;-77
2021/07/22 07:00:52;;;;;;;6.20;5.60;;;;;;;25.71;37.24;96130.91;4990239;28;20180;-77
2021/07/22 07:03:19;;;;;;;6.70;5.68;;;;;;;25.28;38.22;96131.09;4978110;28;20184;-74
2021/07/22 07:05:44;;;;;;;7.30;5.70;;;;;;;25.23;38.02;96131.78;5000458;28;20183;-77
2021/07/22 07:08:10;;;;;;;8.30;5.15;;;;;;;25.78;36.30;96139.59;4973556;28;20274;-77
2021/07/22 07:10:35;;;;;;;6.50;5.57;;;;;;;24.07;41.33;96129.94;4977147;28;20191;-78
2021/07/22 07:13:00;;;;;;;6.55;5.60;;;;;;;23.93;39.78;96131.09;4992415;28;20211;-78
2021/07/22 07:15:25;;;;;;;8.18;5.68;;;;;;;24.46;40.08;96138.56;4992229;28;20278;-78
2021/07/22 07:17:51;;;;;;;9.52;5.53;;;;;;;25.52;38.41;96134.63;4992506;28;20662;-77
2021/07/22 07:20:16;;;;;;;7.50;5.10;;;;;;;26.17;37.13;96126.69;4992153;28;20184;-77
2021/07/22 07:22:42;;;;;;;9.43;5.50;;;;;;;26.78;36.42;96130.72;4991016;28;20658;-77
2021/07/22 07:25:08;;;;;;;5.97;5.38;;;;;;;27.02;35.46;96123.44;4991998;28;20282;-77
2021/07/22 07:27:35;;;;;;;6.30;5.55;;;;;;;28.22;32.91;96131.19;4991796;28;20184;-76
2021/07/22 07:30:00;;;;;;;6.95;5.63;;;;;;;27.54;34.02;96132.16;4991938;28;20218;-77
2021/07/22 07:32:25;;;;;;;11.70;6.13;;;;;;;26.30;35.07;96130.97;4986906;28;20211;-77
2021/07/22 07:34:50;;;;;;;8.10;6.15;;;;;;;26.78;34.80;96131.50;4991483;28;20239;-77
2021/07/22 07:37:16;;;;;;;7.72;5.55;;;;;;;27.17;34.41;96131.78;4992942;28;20175;-76
2021/07/22 07:39:41;;;;;;;7.80;4.97;;;;;;;26.50;34.59;96120.78;4993023;28;20595;-76
2021/07/22 07:42:06;;;;;;;8.38;5.78;;;;;;;27.19;35.20;96126.19;4989790;28;20191;-75
2021/07/22 07:44:32;;;;;;;7.43;5.80;;;;;;;26.49;34.68;96129.81;4991436;28;20227;-76
2021/07/22 07:46:57;;;;;;;7.70;6.15;;;;;;;26.18;34.95;96123.78;4991758;28;20176;-76
2021/07/22 07:49:22;;;;;;;7.72;5.22;;;;;;;26.27;34.67;96129.56;4991494;28;20247;-75
2021/07/22 07:51:48;;;;;;;6.15;5.55;;;;;;;27.13;33.54;96132.50;4991115;28;20176;-75
2021/07/22 07:54:13;;;;;;;8.70;5.97;;;;;;;27.13;33.33;96137.81;4990121;28;20207;-76
2021/07/22 07:56:38;;;;;;;11.88;6.13;;;;;;;27.36;33.53;96135.03;4991545;28;20172;-77
2021/07/22 07:59:04;;;;;;;9.38;5.90;;;;;;;27.40;32.09;96135.41;4975150;28;20234;-76
2021/07/22 08:01:30;;;;;;;6.93;6.15;;;;;;;26.83;34.20;96122.81;4990964;28;20247;-75
2021/07/22 08:03:56;;;;;;;7.15;6.38;;;;;;;26.92;33.51;96123.25;4989727;28;20266;-76
2021/07/22 08:06:22;;;;;;;9.02;6.40;;;;;;;26.76;34.70;96117.59;4974971;28;20254;-76
2021/07/22 08:08:47;;;;;;;8.70;6.25;;;;;;;25.63;36.47;96129.38;4992456;28;20230;-76
2021/07/22 08:11:13;;;;;;;8.93;5.85;;;;;;;25.40;37.07;96127.44;4990889;28;20794;-76
2021/07/22 08:13:38;;;;;;;8.13;6.20;;;;;;;25.86;36.34;96120.63;4990819;28;20298;-76
2021/07/22 08:16:04;;;;;;;8.50;6.35;;;;;;;24.68;38.61;96125.69;4990204;28;20183;-75
2021/07/22 08:18:30;;;;;;;8.13;5.70;;;;;;;24.65;40.05;96120.81;4990509;28;20179;-75
2021/07/22 08:20:55;;;;;;;8.10;6.07;;;;;;;24.39;39.81;96119.28;4991195;28;20262;-75
2021/07/22 08:23:20;;;;;;;11.43;6.28;;;;;;;25.04;39.54;96124.88;4990646;28;20244;-76
2021/07/22 08:25:47;;;;;;;8.27;5.95;;;;;;;24.44;39.72;96114.09;4990051;28;20215;-76
2021/07/22 08:28:13;;;;;;;8.25;6.30;;;;;;;24.92;39.01;96113.38;4991086;28;20565;-77
2021/07/22 08:30:38;;;;;;;8.55;6.72;;;;;;;25.01;39.42;96117.34;4975124;28;20180;-76
2021/07/22 08:33:03;;;;;;;8.43;6.00;;;;;;;24.94;39.69;96113.94;4990519;28;20199;-74
2021/07/22 08:35:29;;;;;;;7.47;6.28;;;;;;;24.96;39.19;96120.66;4973538;28;20211;-77
2021/07/22 08:37:54;;;;;;;6.90;5.93;;;;;;;25.02;40.18;96124.25;4990925;28;20190;-76
2021/07/22 08:40:19;;;;;;;8.10;5.93;;;;;;;23.87;42.80;96119.53;4974188;28;20187;-76
2021/07/22 08:42:47;;;;;;;7.93;6.07;;;;;;;23.93;41.96;96120.47;4990417;28;20188;-77
2021/07/22 08:45:14;;;;;;;8.90;5.97;;;;;;;24.38;40.15;96126.41;4990905;28;20282;-76
2021/07/22 08:47:41;;;;;;;8.23;5.63;;;;;;;24.10;41.54;96121.53;4973687;28;20188;-76
2021/07/22 08:50:07;;;;;;;8.68;5.90;;;;;;;23.55;43.01;96118.69;4991267;28;20211;-76
2021/07/22 08:52:33;;;;;;;9.18;6.95;;;;;;;23.28;40.80;96118.06;4991022;28;20202;-77
2021/07/22 08:54:58;;;;;;;6.93;6.03;;;;;;;22.74;41.19;96115.84;4990907;28;20215;-76
2021/07/22 08:57:29;;;;;;;7.47;6.05;;;;;;;23.11;42.08;96111.63;4989679;28;20176;-76
2021/07/22 08:59:55;;;;;;;9.77;7.10;;;;;;;22.76;42.04;96119.91;4974673;28;20218;-76
2021/07/22 09:02:22;;;;;;;7.88;6.15;;;;;;;23.22;42.50;96120.75;4990394;28;20180;-76
2021/07/22 09:04:52;;;;;;;7.70;6.70;;;;;;;23.76;42.67;96124.69;4977201;28;20204;-76
2021/07/22 09:07:18;;;;;;;8.48;7.38;;;;;;;23.74;41.70;96127.56;4997963;28;20176;-74
2021/07/22 09:09:43;;;;;;;7.85;6.65;;;;;;;23.42;44.44;96129.41;5031161;28;20171;-77
2021/07/22 09:12:08;;;;;;;9.70;7.50;;;;;;;23.81;43.89;96125.69;4997326;28;20183;-76
2021/07/22 09:14:35;;;;;;;8.30;6.53;;;;;;;23.59;44.47;96119.94;5002575;28;20586;-76
2021/07/22 09:17:01;;;;;;;7.85;6.88;;;;;;;23.25;44.54;96121.16;4994755;28;20271;-76
2021/07/22 09:19:36;;;;;;;10.02;6.80;;;;;;;22.80;45.13;96125.63;4993289;28;20271;-77
2021/07/22 09:22:04;;;;;;;11.70;7.40;;;;;;;23.11;45.26;96119.59;4977965;28;20179;-77
2021/07/22 09:24:29;;;;;;;9.32;6.68;;;;;;;23.21;45.50;96116.47;4994672;28;20196;-76
2021/07/22 09:26:56;;;;;;;11.30;7.00;;;;;;;23.60;44.95;96118.09;5007960;28;20191;-75
2021/07/22 09:29:21;;;;;;;8.27;6.93;;;;;;;23.61;44.06;96122.38;5015498;28;20203;-75
2021/07/22 09:31:47;;;;;;;9.27;6.65;;;;;;;23.63;43.42;96125.63;4988415;28;20184;-76
2021/07/22 09:34:18;;;;;;;7.88;7.15;;;;;;;23.40;45.29;96116.34;4998395;28;20214;-76
2021/07/22 09:36:44;;;;;;;8.02;7.32;;;;;;;23.48;45.07;96122.41;5005040;28;20187;-77
2021/07/22 09:39:28;;;;;;;8.70;6.55;;;;;;;23.82;42.58;96113.22;4994062;28;20180;-75
2021/07/22 09:42:06;;;;;;;7.38;6.72;;;;;;;23.84;41.96;96125.22;4993403;28;20180;-77
2021/07/22 09:44:35;;;;;;;8.30;6.40;;;;;;;23.34;44.23;96121.72;4993937;28;20278;-77
2021/07/22 09:47:02;;;;;;;11.15;6.57;;;;;;;23.84;42.47;96119.94;4979878;28;20273;-77
2021/07/22 09:49:35;;;;;;;9.50;7.10;;;;;;;23.73;42.36;96112.69;4998169;28;20182;-77
2021/07/22 09:52:02;;;;;;;7.10;6.40;;;;;;;23.73;41.79;96116.16;4995494;28;20180;-76
2021/07/22 09:54:35;;;;;;;7.65;6.53;;;;;;;23.72;40.25;96109.22;4997404;28;20230;-77
2021/07/22 09:57:02;;;;;;;8.60;6.93;;;;;;;24.18;40.34;96107.19;4997674;28;20178;-78
2021/07/22 09:59:28;;;;;;;7.40;6.75;;;;;;;23.69;40.80;96109.66;4994260;28;20192;-78
2021/07/22 10:01:58;;;;;;;9.60;6.88;;;;;;;23.73;39.91;96108.19;4977068;28;20658;-78
2021/07/22 10:04:23;;;;;;;8.23;6.45;;;;;;;23.56;39.45;96108.91;4974546;28;20207;-77
2021/07/22 10:06:49;;;;;;;7.90;6.53;;;;;;;23.72;39.98;96105.75;4958479;28;20555;-78
2021/07/22 10:09:18;;;;;;;7.95;6.43;;;;;;;24.08;38.68;96098.94;4976328;28;20226;-77
2021/07/22 10:11:44;;;;;;;10.98;6.70;;;;;;;23.61;41.17;96106.47;4972835;28;20172;-77
2021/07/22 10:14:09;;;;;;;7.78;7.00;;;;;;;23.21;40.52;96098.75;4993161;28;20238;-77
2021/07/22 10:16:35;;;;;;;7.88;6.28;;;;;;;23.58;39.90;96099.72;4993536;28;20268;-77
2021/07/22 10:19:01;;;;;;;7.68;6.43;;;;;;;23.27;40.17;96097.91;4994480;28;20607;-77
2021/07/22 10:21:26;;;;;;;7.93;7.13;;;;;;;23.20;39.57;96088.34;4993017;28;20195;-75
2021/07/22 10:23:53;;;;;;;9.52;6.45;;;;;;;23.74;40.58;96090.44;4973785;28;20204;-77
2021/07/22 10:26:20;;;;;;;8.52;6.88;;;;;;;23.42;42.29;96092.31;4993062;28;20184;-77
2021/07/22 10:28:46;;;;;;;7.68;6.70;;;;;;;23.48;40.39;96098.56;4993454;28;20176;-76
2021/07/22 10:31:11;;;;;;;8.98;6.63;;;;;;;24.17;38.83;96085.16;4992826;28;20717;-77
2021/07/22 10:33:38;;;;;;;6.88;6.10;;;;;;;24.00;39.23;96079.59;4974624;28;20223;-75
2021/07/22 10:36:05;;;;;;;9.70;6.78;;;;;;;23.84;39.91;96084.66;4992591;28;20180;-74
2021/07/22 10:38:45;;;;;;;13.82;6.43;;;;;;;23.47;40.38;96079.19;4992761;28;20192;-75
2021/07/22 10:41:30;;;;;;;8.68;6.35;;;;;;;23.52;41.09;96074.09;4996064;28;20536;-74
2021/07/22 10:43:55;;;;;;;9.00;6.53;;;;;;;23.56;40.95;96079.75;4990499;28;20234;-76
2021/07/22 10:46:21;;;;;;;7.72;6.60;;;;;;;24.19;39.46;96076.97;4976644;28;20284;-75
2021/07/22 10:48:46;;;;;;;10.85;7.10;;;;;;;23.71;40.77;96065.19;4973139;28;20176;-76
2021/07/22 10:51:13;;;;;;;9.10;7.10;;;;;;;24.29;38.46;96067.50;4956975;28;20551;-76
2021/07/22 10:53:47;;;;;;;9.90;6.85;;;;;;;23.94;39.47;96080.50;4972926;28;20216;-75
2021/07/22 10:56:22;;;;;;;12.43;6.80;;;;;;;23.77;41.49;96081.25;4990210;28;20234;-75
2021/07/22 10:58:48;;;;;;;9.35;7.47;;;;;;;24.22;39.97;96071.25;4993252;28;20605;-77
2021/07/22 11:01:14;;;;;;;9.95;6.68;;;;;;;24.46;38.59;96062.41;4991898;28;20255;-76
2021/07/22 11:03:43;;;;;;;10.23;7.18;;;;;;;24.49;39.88;96067.28;4991584;28;20544;-76
2021/07/22 11:06:12;;;;;;;9.27;7.00;;;;;;;24.81;40.13;96075.06;4990428;28;20188;-76
2021/07/22 11:08:39;;;;;;;9.82;6.95;;;;;;;24.94;38.65;96066.94;4992247;28;20183;-74
2021/07/22 11:11:13;;;;;;;9.07;6.75;;;;;;;25.13;37.58;96073.03;4973620;28;20251;-75
2021/07/22 11:13:46;;;;;;;7.95;7.13;;;;;;;24.48;39.50;96067.53;4962331;28;20542;-76
2021/07/22 11:16:22;;;;;;;8.13;7.20;;;;;;;23.85;41.08;96065.84;4988636;28;20195;-76
2021/07/22 11:18:48;;;;;;;10.93;7.40;;;;;;;24.08;40.13;96059.94;4977086;28;20194;-77
2021/07/22 11:21:23;;;;;;;8.63;7.53;;;;;;;23.93;41.37;96060.28;4992177;28;20226;-77
2021/07/22 11:23:56;;;;;;;6.65;6.05;;;;;;;25.02;39.43;96064.00;4993157;28;20222;-77
2021/07/22 11:26:37;;;;;;;8.77;6.60;;;;;;;25.32;38.03;96058.66;4973961;28;20199;-76